createdAt,value
2018-07-20T00:00:07.815Z,12.51
2018-07-20T00:01:07.718Z,12.51
2018-07-20T00:02:07.825Z,12.53
2018-07-20T00:03:07.763Z,12.50
2018-07-20T00:04:07.935Z,12.48
2018-07-20T00:05:07.840Z,12.47
2018-07-20T00:06:07.917Z,12.44
2018-07-20T00:07:07.914Z,12.47
2018-07-20T00:08:07.880Z,12.46
2018-07-20T00:09:07.866Z,12.47
2018-07-20T00:10:07.862Z,12.47
2018-07-20T00:11:07.826Z,12.44
2018-07-20T00:12:07.880Z,12.48
2018-07-20T00:13:07.921Z,12.50
2018-07-20T00:14:07.777Z,12.48
2018-07-20T00:15:07.915Z,12.47
2018-07-20T00:16:07.903Z,12.46
2018-07-20T00:17:07.849Z,12.43
2018-07-20T00:18:07.901Z,12.42
2018-07-20T00:19:07.785Z,12.42
2018-07-20T00:20:07.830Z,12.40
2018-07-20T00:21:07.848Z,12.39
2018-07-20T00:22:07.796Z,12.36
2018-07-20T00:23:07.904Z,12.33
2018-07-20T00:24:07.852Z,12.29
2018-07-20T00:25:07.935Z,12.29
2018-07-20T00:26:07.874Z,12.28
2018-07-20T00:27:07.909Z,12.28
2018-07-20T00:28:07.879Z,12.26
2018-07-20T00:29:07.913Z,12.25
2018-07-20T00:30:07.950Z,12.21
2018-07-20T00:31:07.947Z,12.14
2018-07-20T00:32:07.986Z,12.12
2018-07-20T00:33:07.818Z,12.13
2018-07-20T00:34:07.916Z,12.12
2018-07-20T00:35:07.927Z,12.06
2018-07-20T00:36:07.920Z,12.03
2018-07-20T00:37:07.854Z,12.02
2018-07-20T00:38:07.854Z,12.03
2018-07-20T00:39:07.932Z,12.02
2018-07-20T00:40:07.860Z,11.99
2018-07-20T00:41:07.855Z,11.97
2018-07-20T00:42:07.923Z,11.95
2018-07-20T00:43:07.861Z,11.94
2018-07-20T00:44:07.828Z,11.92
2018-07-20T00:45:07.947Z,11.91
2018-07-20T00:46:07.851Z,11.92
2018-07-20T00:47:07.948Z,11.87
2018-07-20T00:48:07.879Z,11.86
2018-07-20T00:49:07.957Z,11.84
2018-07-20T00:50:07.893Z,11.83
2018-07-20T00:51:07.906Z,11.82
2018-07-20T00:52:07.951Z,11.79
2018-07-20T00:53:07.852Z,11.78
2018-07-20T00:54:07.864Z,11.75
2018-07-20T00:55:07.865Z,11.73
2018-07-20T00:56:07.868Z,11.75
2018-07-20T00:57:07.863Z,11.79
2018-07-20T00:58:07.934Z,11.79
2018-07-20T00:59:07.932Z,11.79
2018-07-20T01:00:07.866Z,11.78
2018-07-20T01:01:07.875Z,11.79
2018-07-20T01:02:07.873Z,11.82
2018-07-20T01:03:07.935Z,11.82
2018-07-20T01:04:07.977Z,11.87
2018-07-20T01:05:07.945Z,11.87
2018-07-20T01:06:07.882Z,11.91
2018-07-20T01:07:07.938Z,11.91
2018-07-20T01:08:07.983Z,11.91
2018-07-20T01:09:07.941Z,11.89
2018-07-20T01:10:07.865Z,11.89
2018-07-20T01:11:07.871Z,11.89
2018-07-20T01:12:07.921Z,11.87
2018-07-20T01:13:07.884Z,11.87
2018-07-20T01:14:07.976Z,11.89
2018-07-20T01:15:07.978Z,11.89
2018-07-20T01:16:07.985Z,11.87
2018-07-20T01:17:07.925Z,11.86
2018-07-20T01:18:07.871Z,11.83
2018-07-20T01:19:07.989Z,11.82
2018-07-20T01:20:07.926Z,11.80
2018-07-20T01:21:07.876Z,11.79
2018-07-20T01:22:07.871Z,11.76
2018-07-20T01:23:07.911Z,11.75
2018-07-20T01:24:07.948Z,11.72
2018-07-20T01:25:07.994Z,11.71
2018-07-20T01:26:07.915Z,11.69
2018-07-20T01:27:07.923Z,11.68
2018-07-20T01:28:07.860Z,11.65
2018-07-20T01:29:07.922Z,11.67
2018-07-20T01:30:07.920Z,11.65
2018-07-20T01:31:07.928Z,11.62
2018-07-20T01:32:07.864Z,11.64
2018-07-20T01:33:07.978Z,11.65
2018-07-20T01:34:07.994Z,11.64
2018-07-20T01:35:07.964Z,11.61
2018-07-20T01:36:07.981Z,11.61
2018-07-20T01:37:07.902Z,11.61
2018-07-20T01:38:07.879Z,11.58
2018-07-20T01:39:07.941Z,11.57
2018-07-20T01:40:07.934Z,11.53
2018-07-20T01:41:07.979Z,11.53
2018-07-20T01:42:08.021Z,11.53
2018-07-20T01:43:07.984Z,11.53
2018-07-20T01:44:08.004Z,11.53
2018-07-20T01:45:07.921Z,11.50
2018-07-20T01:46:07.871Z,11.47
2018-07-20T01:47:07.927Z,11.46
2018-07-20T01:48:08.009Z,11.45
2018-07-20T01:49:07.895Z,11.43
2018-07-20T01:50:07.969Z,11.43
2018-07-20T01:51:07.935Z,11.45
2018-07-20T01:52:07.969Z,11.43
2018-07-20T01:53:07.991Z,11.39
2018-07-20T01:54:07.900Z,11.39
2018-07-20T01:55:07.970Z,11.38
2018-07-20T01:56:07.906Z,11.35
2018-07-20T01:57:07.908Z,11.32
2018-07-20T01:58:08.033Z,11.32
2018-07-20T01:59:07.924Z,11.31
2018-07-20T02:00:08.015Z,11.29
2018-07-20T02:01:07.978Z,11.27
2018-07-20T02:02:07.978Z,11.24
2018-07-20T02:03:07.918Z,11.20
2018-07-20T02:04:07.918Z,11.17
2018-07-20T02:05:07.979Z,11.14
2018-07-20T02:06:07.916Z,11.13
2018-07-20T02:07:07.980Z,11.10
2018-07-20T02:08:07.983Z,11.09
2018-07-20T02:09:07.914Z,11.10
2018-07-20T02:10:07.980Z,11.07
2018-07-20T02:11:07.982Z,11.05
2018-07-20T02:12:07.918Z,11.06
2018-07-20T02:13:07.936Z,11.05
2018-07-20T02:14:08.018Z,11.03
2018-07-20T02:15:07.937Z,11.02
2018-07-20T02:16:07.978Z,10.97
2018-07-20T02:17:08.015Z,10.94
2018-07-20T02:18:08.029Z,10.91
2018-07-20T02:19:07.928Z,10.93
2018-07-20T02:20:07.955Z,10.91
2018-07-20T02:21:07.893Z,10.93
2018-07-20T02:22:07.963Z,10.91
2018-07-20T02:23:07.955Z,10.90
2018-07-20T02:24:08.017Z,10.88
2018-07-20T02:25:07.909Z,10.87
2018-07-20T02:26:07.917Z,10.87
2018-07-20T02:27:07.894Z,10.86
2018-07-20T02:28:07.970Z,10.83
2018-07-20T02:29:07.900Z,10.80
2018-07-20T02:30:08.046Z,10.79
2018-07-20T02:31:08.025Z,10.80
2018-07-20T02:32:07.956Z,10.79
2018-07-20T02:33:08.000Z,10.75
2018-07-20T02:34:07.974Z,10.72
2018-07-20T02:35:07.956Z,10.71
2018-07-20T02:36:08.001Z,10.68
2018-07-20T02:37:07.944Z,10.64
2018-07-20T02:38:07.995Z,10.64
2018-07-20T02:39:08.045Z,10.67
2018-07-20T02:40:08.039Z,10.68
2018-07-20T02:41:07.974Z,10.69
2018-07-20T02:42:08.078Z,10.67
2018-07-20T02:43:08.013Z,10.65
2018-07-20T02:44:08.006Z,10.64
2018-07-20T02:45:08.045Z,10.61
2018-07-20T02:46:08.009Z,10.60
2018-07-20T02:47:07.983Z,10.60
2018-07-20T02:48:08.021Z,10.58
2018-07-20T02:49:07.950Z,10.54
2018-07-20T02:50:07.991Z,10.53
2018-07-20T02:51:07.973Z,10.53
2018-07-20T02:52:08.015Z,10.50
2018-07-20T02:53:08.015Z,10.50
2018-07-20T02:54:08.050Z,10.50
2018-07-20T02:55:08.057Z,10.49
2018-07-20T02:56:08.013Z,10.47
2018-07-20T02:57:07.972Z,10.46
2018-07-20T02:58:07.918Z,10.43
2018-07-20T02:59:16.569Z,10.42
2018-07-20T03:00:07.984Z,10.39
2018-07-20T03:01:07.937Z,10.38
2018-07-20T03:02:07.989Z,10.36
2018-07-20T03:03:07.944Z,10.35
2018-07-20T03:04:07.996Z,10.32
2018-07-20T03:05:07.975Z,10.32
2018-07-20T03:06:08.056Z,10.32
2018-07-20T03:07:08.027Z,10.36
2018-07-20T03:08:07.965Z,10.35
2018-07-20T03:09:08.013Z,10.34
2018-07-20T03:10:07.933Z,10.31
2018-07-20T03:11:07.997Z,10.31
2018-07-20T03:12:07.931Z,10.30
2018-07-20T03:13:08.052Z,10.30
2018-07-20T03:14:07.959Z,10.31
2018-07-20T03:15:08.029Z,10.31
2018-07-20T03:16:07.961Z,10.30
2018-07-20T03:17:08.031Z,10.28
2018-07-20T03:18:07.960Z,10.27
2018-07-20T03:19:08.044Z,10.25
2018-07-20T03:20:08.033Z,10.23
2018-07-20T03:21:08.017Z,10.23
2018-07-20T03:22:07.971Z,10.21
2018-07-20T03:23:08.032Z,10.20
2018-07-20T03:24:08.011Z,10.17
2018-07-20T03:25:07.936Z,10.18
2018-07-20T03:26:08.002Z,10.18
2018-07-20T03:27:07.954Z,10.23
2018-07-20T03:28:08.041Z,10.23
2018-07-20T03:29:08.002Z,10.20
2018-07-20T03:30:08.008Z,10.20
2018-07-20T03:31:08.073Z,10.17
2018-07-20T03:32:07.943Z,10.18
2018-07-20T03:33:08.000Z,10.18
2018-07-20T03:34:08.042Z,10.16
2018-07-20T03:35:07.974Z,10.14
2018-07-20T03:36:08.062Z,10.16
2018-07-20T03:37:07.989Z,10.16
2018-07-20T03:38:08.041Z,10.18
2018-07-20T03:39:08.042Z,10.20
2018-07-20T03:40:08.046Z,10.18
2018-07-20T03:41:07.976Z,10.18
2018-07-20T03:42:08.043Z,10.17
2018-07-20T03:43:07.981Z,10.18
2018-07-20T03:44:08.063Z,10.18
2018-07-20T03:45:08.077Z,10.20
2018-07-20T03:46:08.072Z,10.20
2018-07-20T03:47:08.042Z,10.18
2018-07-20T03:48:07.951Z,10.21
2018-07-20T03:49:08.150Z,10.23
2018-07-20T03:50:08.015Z,10.23
2018-07-20T03:51:08.047Z,10.21
2018-07-20T03:52:08.051Z,10.23
2018-07-20T03:53:08.050Z,10.24
2018-07-20T03:54:07.975Z,10.24
2018-07-20T03:55:08.053Z,10.24
2018-07-20T03:56:07.949Z,10.25
2018-07-20T03:57:08.085Z,10.24
2018-07-20T03:58:08.092Z,10.25
2018-07-20T03:59:08.019Z,10.28
2018-07-20T04:00:08.076Z,10.32
2018-07-20T04:01:08.071Z,10.34
2018-07-20T04:02:08.034Z,10.36
2018-07-20T04:03:08.101Z,10.38
2018-07-20T04:04:08.066Z,10.38
2018-07-20T04:05:08.081Z,10.38
2018-07-20T04:06:08.060Z,10.41
2018-07-20T04:07:08.074Z,10.42
2018-07-20T04:08:07.969Z,10.42
2018-07-20T04:09:08.042Z,10.45
2018-07-20T04:10:08.035Z,10.47
2018-07-20T04:11:08.006Z,10.49
2018-07-20T04:12:08.084Z,10.49
2018-07-20T04:13:07.970Z,10.50
2018-07-20T04:14:08.024Z,10.53
2018-07-20T04:15:08.049Z,10.54
2018-07-20T04:16:08.054Z,10.56
2018-07-20T04:17:08.004Z,10.58
2018-07-20T04:18:07.974Z,10.61
2018-07-20T04:19:07.943Z,10.61
2018-07-20T04:20:08.056Z,10.64
2018-07-20T04:21:08.062Z,10.67
2018-07-20T04:22:08.069Z,10.69
2018-07-20T04:23:07.940Z,10.74
2018-07-20T04:24:08.008Z,10.80
2018-07-20T04:25:08.071Z,10.83
2018-07-20T04:26:08.117Z,10.86
2018-07-20T04:27:08.103Z,10.88
2018-07-20T04:28:08.096Z,10.91
2018-07-20T04:29:08.076Z,10.95
2018-07-20T04:30:08.055Z,10.97
2018-07-20T04:31:07.972Z,11.02
2018-07-20T04:32:08.078Z,11.06
2018-07-20T04:33:08.048Z,11.11
2018-07-20T04:34:08.042Z,11.14
2018-07-20T04:35:08.080Z,11.17
2018-07-20T04:36:08.014Z,11.24
2018-07-20T04:37:08.014Z,11.29
2018-07-20T04:38:08.084Z,11.33
2018-07-20T04:39:08.021Z,11.36
2018-07-20T04:40:08.015Z,11.42
2018-07-20T04:41:08.082Z,11.46
2018-07-20T04:42:08.081Z,11.49
2018-07-20T04:43:08.022Z,11.50
2018-07-20T04:44:08.017Z,11.53
2018-07-20T04:45:08.046Z,11.56
2018-07-20T04:46:08.083Z,11.60
2018-07-20T04:47:08.086Z,11.62
2018-07-20T04:48:08.047Z,11.67
2018-07-20T04:49:08.070Z,11.71
2018-07-20T04:50:08.052Z,11.76
2018-07-20T04:51:08.109Z,11.80
2018-07-20T04:52:08.153Z,11.84
2018-07-20T04:53:07.994Z,11.89
2018-07-20T04:54:08.117Z,11.95
2018-07-20T04:55:07.988Z,11.99
2018-07-20T04:56:08.000Z,12.05
2018-07-20T04:57:07.992Z,12.10
2018-07-20T04:58:08.017Z,12.14
2018-07-20T04:59:07.956Z,12.20
2018-07-20T05:00:08.040Z,12.22
2018-07-20T05:01:08.046Z,12.29
2018-07-20T05:02:07.951Z,12.32
2018-07-20T05:03:08.047Z,12.37
2018-07-20T05:04:08.050Z,12.40
2018-07-20T05:05:08.060Z,12.47
2018-07-20T05:06:08.037Z,12.54
2018-07-20T05:07:08.104Z,12.61
2018-07-20T05:08:08.058Z,12.66
2018-07-20T05:09:08.099Z,12.73
2018-07-20T05:10:08.036Z,12.79
2018-07-20T05:11:08.103Z,12.83
2018-07-20T05:12:08.040Z,12.91
2018-07-20T05:13:08.041Z,12.98
2018-07-20T05:14:08.041Z,13.05
2018-07-20T05:15:08.042Z,13.13
2018-07-20T05:16:08.105Z,13.21
2018-07-20T05:17:08.106Z,13.28
2018-07-20T05:18:08.107Z,13.32
2018-07-20T05:19:08.110Z,13.38
2018-07-20T05:20:08.040Z,13.45
2018-07-20T05:21:08.108Z,13.49
2018-07-20T05:22:08.049Z,13.53
2018-07-20T05:23:08.045Z,13.54
2018-07-20T05:24:08.169Z,13.59
2018-07-20T05:25:08.129Z,13.64
2018-07-20T05:26:08.038Z,13.68
2018-07-20T05:27:08.075Z,13.72
2018-07-20T05:28:08.027Z,13.76
2018-07-20T05:29:08.056Z,13.79
2018-07-20T05:30:08.090Z,13.83
2018-07-20T05:31:08.077Z,13.88
2018-07-20T05:32:08.143Z,13.92
2018-07-20T05:33:08.091Z,13.98
2018-07-20T05:34:08.097Z,14.03
2018-07-20T05:35:08.006Z,14.07
2018-07-20T05:36:08.044Z,14.13
2018-07-20T05:37:08.116Z,14.17
2018-07-20T05:38:08.091Z,14.24
2018-07-20T05:39:08.113Z,14.31
2018-07-20T05:40:07.995Z,14.38
2018-07-20T05:41:08.112Z,14.44
2018-07-20T05:42:08.115Z,14.49
2018-07-20T05:43:07.993Z,14.55
2018-07-20T05:44:08.057Z,14.62
2018-07-20T05:45:08.140Z,14.72
2018-07-20T05:46:08.125Z,14.79
2018-07-20T05:47:08.061Z,14.82
2018-07-20T05:48:08.128Z,14.92
2018-07-20T05:49:08.063Z,14.96
2018-07-20T05:50:08.132Z,15.07
2018-07-20T05:51:08.063Z,15.11
2018-07-20T05:52:08.130Z,15.19
2018-07-20T05:53:08.065Z,15.31
2018-07-20T05:54:08.067Z,15.42
2018-07-20T05:55:08.172Z,15.57
2018-07-20T05:56:08.131Z,15.64
2018-07-20T05:57:08.067Z,15.72
2018-07-20T05:58:08.136Z,15.87
2018-07-20T05:59:08.134Z,16.05
2018-07-20T06:00:08.136Z,16.24
2018-07-20T06:01:08.070Z,16.43
2018-07-20T06:02:08.140Z,16.66
2018-07-20T06:03:08.071Z,16.83
2018-07-20T06:04:08.219Z,17.03
2018-07-20T06:05:08.136Z,17.22
2018-07-20T06:06:08.072Z,17.39
2018-07-20T06:07:08.111Z,17.46
2018-07-20T06:08:08.126Z,17.54
2018-07-20T06:09:08.112Z,17.71
2018-07-20T06:10:08.120Z,17.85
2018-07-20T06:11:08.117Z,17.99
2018-07-20T06:12:08.105Z,18.13
2018-07-20T06:13:08.118Z,18.21
2018-07-20T06:14:08.208Z,18.29
2018-07-20T06:15:08.099Z,18.32
2018-07-20T06:16:08.130Z,18.27
2018-07-20T06:17:08.132Z,18.29
2018-07-20T06:18:08.131Z,18.27
2018-07-20T06:19:08.092Z,18.27
2018-07-20T06:20:08.072Z,18.27
2018-07-20T06:21:08.048Z,18.14
2018-07-20T06:22:08.103Z,18.09
2018-07-20T06:23:08.077Z,18.07
2018-07-20T06:24:08.092Z,18.07
2018-07-20T06:25:08.115Z,17.96
2018-07-20T06:26:08.177Z,18.05
2018-07-20T06:27:08.113Z,18.10
2018-07-20T06:28:08.092Z,18.18
2018-07-20T06:29:08.117Z,18.25
2018-07-20T06:30:08.117Z,18.40
2018-07-20T06:31:08.279Z,18.57
2018-07-20T06:32:08.140Z,18.70
2018-07-20T06:33:08.135Z,18.81
2018-07-20T06:34:08.062Z,18.84
2018-07-20T06:35:08.069Z,18.77
2018-07-20T06:36:08.159Z,18.72
2018-07-20T06:37:08.159Z,18.64
2018-07-20T06:38:08.122Z,18.59
2018-07-20T06:39:08.177Z,18.59
2018-07-20T06:40:08.124Z,18.68
2018-07-20T06:41:08.130Z,18.73
2018-07-20T06:42:08.147Z,18.81
2018-07-20T06:43:08.300Z,18.81
2018-07-20T06:44:08.201Z,18.77
2018-07-20T06:45:08.200Z,18.77
2018-07-20T06:46:08.071Z,18.79
2018-07-20T06:47:08.263Z,18.84
2018-07-20T06:48:08.151Z,18.98
2018-07-20T06:49:08.175Z,19.10
2018-07-20T06:50:08.111Z,19.27
2018-07-20T06:51:08.194Z,19.36
2018-07-20T06:52:08.204Z,19.39
2018-07-20T06:53:08.131Z,19.44
2018-07-20T06:54:08.207Z,19.60
2018-07-20T06:55:08.154Z,19.70
2018-07-20T06:56:08.082Z,19.83
2018-07-20T06:57:08.133Z,19.98
2018-07-20T06:58:08.205Z,20.20
2018-07-20T06:59:08.197Z,20.46
2018-07-20T07:00:08.131Z,20.50
2018-07-20T07:01:08.087Z,20.57
2018-07-20T07:02:08.138Z,20.77
2018-07-20T07:03:08.100Z,20.94
2018-07-20T07:04:08.140Z,20.91
2018-07-20T07:05:08.097Z,20.82
2018-07-20T07:06:08.140Z,20.66
2018-07-20T07:07:08.184Z,20.69
2018-07-20T07:08:08.209Z,20.64
2018-07-20T07:09:08.208Z,20.73
2018-07-20T07:10:08.144Z,20.82
2018-07-20T07:11:08.218Z,20.98
2018-07-20T07:12:08.187Z,21.08
2018-07-20T07:13:08.208Z,21.13
2018-07-20T07:14:08.224Z,21.24
2018-07-20T07:15:08.179Z,21.24
2018-07-20T07:16:08.207Z,21.18
2018-07-20T07:17:08.217Z,21.25
2018-07-20T07:18:08.205Z,21.22
2018-07-20T07:19:08.123Z,21.16
2018-07-20T07:20:08.215Z,21.20
2018-07-20T07:21:08.095Z,21.39
2018-07-20T07:22:08.214Z,21.56
2018-07-20T07:23:08.169Z,21.69
2018-07-20T07:24:08.169Z,21.91
2018-07-20T07:25:08.215Z,22.13
2018-07-20T07:26:08.219Z,22.19
2018-07-20T07:27:08.169Z,22.01
2018-07-20T07:28:08.165Z,22.01
2018-07-20T07:29:08.207Z,22.16
2018-07-20T07:30:08.148Z,22.21
2018-07-20T07:31:08.198Z,22.34
2018-07-20T07:32:08.123Z,22.48
2018-07-20T07:33:08.178Z,22.56
2018-07-20T07:34:08.195Z,22.64
2018-07-20T07:35:08.077Z,22.70
2018-07-20T07:36:08.194Z,22.88
2018-07-20T07:37:08.073Z,23.05
2018-07-20T07:38:08.196Z,23.12
2018-07-20T07:39:08.154Z,23.31
2018-07-20T07:40:08.156Z,23.53
2018-07-20T07:41:08.138Z,23.68
2018-07-20T07:42:08.107Z,23.82
2018-07-20T07:43:08.156Z,23.89
2018-07-20T07:44:08.107Z,23.82
2018-07-20T07:45:08.242Z,23.68
2018-07-20T07:46:08.214Z,23.60
2018-07-20T07:47:08.244Z,23.71
2018-07-20T07:48:08.184Z,23.86
2018-07-20T07:49:08.208Z,23.85
2018-07-20T07:50:08.212Z,23.82
2018-07-20T07:51:08.120Z,23.93
2018-07-20T07:52:08.227Z,24.01
2018-07-20T07:53:08.235Z,24.00
2018-07-20T07:54:08.209Z,24.12
2018-07-20T07:55:08.215Z,24.04
2018-07-20T07:56:08.147Z,23.96
2018-07-20T07:57:08.150Z,24.05
2018-07-20T07:58:08.214Z,24.16
2018-07-20T07:59:08.172Z,24.16
2018-07-20T08:00:08.215Z,24.00
2018-07-20T08:01:08.153Z,24.09
2018-07-20T08:02:08.152Z,24.27
2018-07-20T08:03:08.168Z,24.44
2018-07-20T08:04:08.219Z,24.71
2018-07-20T08:05:08.241Z,24.83
2018-07-20T08:06:08.239Z,24.67
2018-07-20T08:07:08.244Z,24.81
2018-07-20T08:08:08.268Z,24.70
2018-07-20T08:09:08.134Z,24.63
2018-07-20T08:10:08.428Z,24.47
2018-07-20T08:11:08.125Z,24.66
2018-07-20T08:12:08.221Z,24.83
2018-07-20T08:13:08.260Z,25.05
2018-07-20T08:14:08.238Z,25.13
2018-07-20T08:15:08.204Z,25.15
2018-07-20T08:16:08.270Z,25.23
2018-07-20T08:17:08.254Z,25.44
2018-07-20T08:18:08.215Z,25.63
2018-07-20T08:19:08.266Z,25.85
2018-07-20T08:20:08.154Z,26.03
2018-07-20T08:21:08.130Z,26.32
2018-07-20T08:22:08.237Z,26.44
2018-07-20T08:23:08.210Z,26.66
2018-07-20T08:24:08.255Z,26.77
2018-07-20T08:25:08.174Z,26.64
2018-07-20T08:26:08.133Z,26.71
2018-07-20T08:27:08.196Z,26.84
2018-07-20T08:28:08.154Z,26.92
2018-07-20T08:29:08.236Z,27.03
2018-07-20T08:30:08.140Z,27.17
2018-07-20T08:31:08.274Z,27.28
2018-07-20T08:32:08.217Z,27.33
2018-07-20T08:33:08.266Z,27.29
2018-07-20T08:34:08.236Z,27.15
2018-07-20T08:35:08.241Z,27.01
2018-07-20T08:36:08.242Z,27.01
2018-07-20T08:37:08.219Z,27.11
2018-07-20T08:38:08.216Z,27.10
2018-07-20T08:39:08.222Z,26.99
2018-07-20T08:40:08.142Z,26.85
2018-07-20T08:41:08.255Z,26.93
2018-07-20T08:42:08.265Z,26.93
2018-07-20T08:43:08.271Z,26.89
2018-07-20T08:44:08.167Z,26.88
2018-07-20T08:45:08.278Z,26.86
2018-07-20T08:46:08.244Z,26.88
2018-07-20T08:47:08.230Z,26.79
2018-07-20T08:48:08.229Z,26.66
2018-07-20T08:49:08.249Z,26.67
2018-07-20T08:50:08.281Z,26.68
2018-07-20T08:51:08.213Z,26.81
2018-07-20T08:52:08.152Z,26.99
2018-07-20T08:53:08.281Z,26.95
2018-07-20T08:54:08.340Z,27.10
2018-07-20T08:55:08.255Z,27.22
2018-07-20T08:56:08.231Z,27.44
2018-07-20T08:57:08.216Z,27.52
2018-07-20T08:58:08.286Z,27.63
2018-07-20T08:59:08.392Z,27.55
2018-07-20T09:00:08.228Z,27.71
2018-07-20T09:01:08.233Z,27.86
2018-07-20T09:02:08.166Z,27.95
2018-07-20T09:03:08.260Z,27.99
2018-07-20T09:04:08.289Z,28.18
2018-07-20T09:05:08.261Z,28.28
2018-07-20T09:06:08.194Z,28.25
2018-07-20T09:07:08.227Z,28.25
2018-07-20T09:08:08.310Z,28.28
2018-07-20T09:09:08.234Z,28.40
2018-07-20T09:10:08.287Z,28.55
2018-07-20T09:11:08.309Z,28.68
2018-07-20T09:12:08.286Z,28.72
2018-07-20T09:13:08.248Z,28.25
2018-07-20T09:14:08.224Z,28.22
2018-07-20T09:15:08.296Z,28.13
2018-07-20T09:16:08.224Z,28.11
2018-07-20T09:17:08.271Z,28.04
2018-07-20T09:18:08.174Z,27.95
2018-07-20T09:19:08.270Z,27.68
2018-07-20T09:20:08.240Z,27.70
2018-07-20T09:21:08.308Z,27.81
2018-07-20T09:22:08.273Z,27.92
2018-07-20T09:23:08.246Z,28.18
2018-07-20T09:24:08.296Z,28.42
2018-07-20T09:25:08.179Z,28.46
2018-07-20T09:26:08.237Z,28.73
2018-07-20T09:27:08.245Z,28.64
2018-07-20T09:28:08.248Z,28.57
2018-07-20T09:29:08.296Z,28.62
2018-07-20T09:30:08.240Z,28.87
2018-07-20T09:31:08.320Z,29.05
2018-07-20T09:32:08.277Z,29.14
2018-07-20T09:33:08.318Z,29.23
2018-07-20T09:34:08.368Z,29.18
2018-07-20T09:35:08.283Z,29.27
2018-07-20T09:36:08.326Z,29.37
2018-07-20T09:37:08.313Z,28.91
2018-07-20T09:38:08.306Z,28.79
2018-07-20T09:39:08.288Z,28.69
2018-07-20T09:40:08.292Z,28.51
2018-07-20T09:41:08.322Z,28.50
2018-07-20T09:42:08.244Z,28.49
2018-07-20T09:43:08.312Z,28.42
2018-07-20T09:44:08.286Z,28.51
2018-07-20T09:45:08.290Z,28.61
2018-07-20T09:46:08.196Z,28.64
2018-07-20T09:47:08.221Z,28.83
2018-07-20T09:48:08.275Z,29.01
2018-07-20T09:49:08.295Z,29.24
2018-07-20T09:50:08.159Z,29.47
2018-07-20T09:51:08.244Z,29.68
2018-07-20T09:52:08.248Z,29.83
2018-07-20T09:53:08.250Z,30.05
2018-07-20T09:54:08.283Z,30.26
2018-07-20T09:55:08.234Z,30.49
2018-07-20T09:56:08.286Z,30.66
2018-07-20T09:57:08.220Z,30.35
2018-07-20T09:58:08.218Z,30.16
2018-07-20T09:59:08.248Z,29.88
2018-07-20T10:00:08.291Z,29.91
2018-07-20T10:01:08.205Z,30.16
2018-07-20T10:02:08.285Z,30.43
2018-07-20T10:03:08.169Z,30.66
2018-07-20T10:04:08.255Z,30.55
2018-07-20T10:05:08.292Z,30.69
2018-07-20T10:06:08.305Z,30.90
2018-07-20T10:07:08.240Z,30.97
2018-07-20T10:08:08.371Z,30.73
2018-07-20T10:09:08.315Z,30.72
2018-07-20T10:10:08.242Z,30.34
2018-07-20T10:11:08.307Z,30.28
2018-07-20T10:12:08.345Z,30.41
2018-07-20T10:13:08.244Z,30.48
2018-07-20T10:14:08.244Z,30.65
2018-07-20T10:15:08.403Z,30.93
2018-07-20T10:16:08.313Z,31.12
2018-07-20T10:17:08.242Z,31.31
2018-07-20T10:18:08.302Z,31.66
2018-07-20T10:19:08.351Z,31.55
2018-07-20T10:20:08.305Z,31.31
2018-07-20T10:21:08.247Z,31.51
2018-07-20T10:22:08.302Z,31.59
2018-07-20T10:23:08.261Z,31.48
2018-07-20T10:24:08.252Z,31.42
2018-07-20T10:25:08.234Z,31.31
2018-07-20T10:26:08.251Z,31.57
2018-07-20T10:28:08.254Z,30.90
2018-07-20T10:29:08.257Z,31.02
2018-07-20T10:30:08.317Z,30.58
2018-07-20T10:31:08.253Z,30.48
2018-07-20T10:32:08.321Z,30.53
2018-07-20T10:33:08.255Z,30.78
2018-07-20T10:34:08.254Z,30.91
2018-07-20T10:35:08.289Z,31.00
2018-07-20T10:36:08.344Z,30.53
2018-07-20T10:37:08.325Z,30.03
2018-07-20T10:38:08.353Z,29.94
2018-07-20T10:39:08.227Z,29.75
2018-07-20T10:40:08.230Z,29.69
2018-07-20T10:41:08.296Z,29.70
2018-07-20T10:42:08.349Z,29.70
2018-07-20T10:43:08.423Z,29.79
2018-07-20T10:44:08.325Z,29.91
2018-07-20T10:45:08.296Z,30.01
2018-07-20T10:46:08.268Z,30.05
2018-07-20T10:47:08.333Z,30.02
2018-07-20T10:48:08.337Z,29.98
2018-07-20T10:49:08.332Z,30.08
2018-07-20T10:50:08.460Z,30.17
2018-07-20T10:51:08.336Z,30.37
2018-07-20T10:52:08.436Z,30.68
2018-07-20T10:53:08.296Z,30.66
2018-07-20T10:54:08.303Z,30.58
2018-07-20T10:55:08.353Z,30.60
2018-07-20T10:56:08.303Z,30.61
2018-07-20T10:57:08.302Z,30.80
2018-07-20T10:58:08.367Z,30.78
2018-07-20T10:59:08.359Z,30.93
2018-07-20T11:00:08.304Z,30.93
2018-07-20T11:01:08.246Z,30.91
2018-07-20T11:02:08.314Z,31.05
2018-07-20T11:03:08.371Z,31.27
2018-07-20T11:04:08.378Z,31.53
2018-07-20T11:05:08.345Z,31.44
2018-07-20T11:06:08.277Z,31.49
2018-07-20T11:07:08.346Z,31.64
2018-07-20T11:08:08.346Z,31.70
2018-07-20T11:09:08.344Z,31.49
2018-07-20T11:10:08.281Z,31.51
2018-07-20T11:11:08.345Z,31.15
2018-07-20T11:12:08.283Z,30.91
2018-07-20T11:13:08.284Z,31.05
2018-07-20T11:14:08.282Z,31.12
2018-07-20T11:15:08.352Z,30.66
2018-07-20T11:16:08.349Z,30.71
2018-07-20T11:17:08.308Z,30.60
2018-07-20T11:18:08.305Z,30.62
2018-07-20T11:19:08.373Z,30.80
2018-07-20T11:20:08.391Z,30.93
2018-07-20T11:21:08.376Z,31.12
2018-07-20T11:22:08.322Z,31.33
2018-07-20T11:23:08.382Z,31.42
2018-07-20T11:24:08.370Z,31.41
2018-07-20T11:25:08.389Z,31.56
2018-07-20T11:26:08.349Z,31.55
2018-07-20T11:27:08.226Z,31.74
2018-07-20T11:28:08.326Z,32.16
2018-07-20T11:29:08.353Z,32.20
2018-07-20T11:30:08.342Z,31.93
2018-07-20T11:31:08.354Z,31.73
2018-07-20T11:32:08.263Z,31.94
2018-07-20T11:33:08.281Z,32.12
2018-07-20T11:34:08.350Z,32.20
2018-07-20T11:35:08.297Z,32.44
2018-07-20T11:36:08.280Z,32.59
2018-07-20T11:37:08.331Z,32.60
2018-07-20T11:38:08.402Z,32.33
2018-07-20T11:39:08.334Z,31.74
2018-07-20T11:40:08.384Z,31.44
2018-07-20T11:41:08.406Z,31.24
2018-07-20T11:42:08.343Z,31.34
2018-07-20T11:43:08.269Z,31.11
2018-07-20T11:44:08.365Z,30.73
2018-07-20T11:45:08.279Z,30.32
2018-07-20T11:46:08.351Z,30.13
2018-07-20T11:47:08.391Z,29.86
2018-07-20T11:48:08.394Z,29.66
2018-07-20T11:49:08.403Z,29.46
2018-07-20T11:50:08.401Z,29.51
2018-07-20T11:51:08.405Z,29.54
2018-07-20T11:52:08.281Z,29.65
2018-07-20T11:53:08.334Z,29.72
2018-07-20T11:54:08.348Z,29.69
2018-07-20T11:55:08.379Z,29.59
2018-07-20T11:56:08.439Z,29.47
2018-07-20T11:57:08.282Z,29.27
2018-07-20T11:58:08.407Z,29.23
2018-07-20T11:59:08.279Z,29.14
2018-07-20T12:00:08.411Z,29.25
2018-07-20T12:01:08.424Z,29.25
2018-07-20T12:02:08.401Z,29.27
2018-07-20T12:03:08.395Z,29.14
2018-07-20T12:04:08.341Z,29.18
2018-07-20T12:05:08.418Z,29.23
2018-07-20T12:06:08.366Z,29.32
2018-07-20T12:07:08.365Z,29.50
2018-07-20T12:08:08.246Z,29.51
2018-07-20T12:09:08.309Z,29.75
2018-07-20T12:10:08.310Z,29.94
2018-07-20T12:11:08.277Z,30.28
2018-07-20T12:12:08.280Z,30.23
2018-07-20T12:13:08.280Z,30.17
2018-07-20T12:14:08.372Z,30.16
2018-07-20T12:15:08.337Z,29.87
2018-07-20T12:16:08.363Z,29.65
2018-07-20T12:17:08.369Z,29.62
2018-07-20T12:18:08.407Z,29.64
2018-07-20T12:19:08.314Z,29.90
2018-07-20T12:20:08.299Z,29.98
2018-07-20T12:21:08.412Z,29.87
2018-07-20T12:22:08.364Z,29.90
2018-07-20T12:23:08.304Z,30.08
2018-07-20T12:24:08.398Z,30.26
2018-07-20T12:25:08.423Z,30.31
2018-07-20T12:26:08.398Z,29.98
2018-07-20T12:27:08.335Z,29.73
2018-07-20T12:28:08.436Z,29.77
2018-07-20T12:29:08.333Z,29.95
2018-07-20T12:30:08.435Z,30.09
2018-07-20T12:31:08.333Z,29.97
2018-07-20T12:32:08.423Z,29.91
2018-07-20T12:33:08.402Z,30.13
2018-07-20T12:34:08.394Z,30.27
2018-07-20T12:35:08.412Z,30.31
2018-07-20T12:36:08.339Z,30.38
2018-07-20T12:37:08.404Z,30.50
2018-07-20T12:38:08.338Z,30.68
2018-07-20T12:39:08.406Z,30.78
2018-07-20T12:40:08.341Z,31.05
2018-07-20T12:41:08.427Z,31.27
2018-07-20T12:42:08.343Z,31.40
2018-07-20T12:43:08.412Z,31.42
2018-07-20T12:44:08.410Z,31.57
2018-07-20T12:45:08.346Z,31.55
2018-07-20T12:46:08.393Z,31.63
2018-07-20T12:47:08.370Z,31.70
2018-07-20T12:48:08.309Z,31.46
2018-07-20T12:49:08.451Z,30.90
2018-07-20T12:50:08.454Z,30.41
2018-07-20T12:51:08.441Z,30.48
2018-07-20T12:52:08.444Z,30.49
2018-07-20T12:53:08.435Z,30.37